sensor_id;sensor_type;location;lat;lon;timestamp;P1;durP1;ratioP1;P2;durP2;ratioP2
17727;SDS011;8984;49.268;12.302;2024-02-16T00:00:34;8.07;;;5.30;;
17727;SDS011;8984;49.268;12.302;2024-02-16T00:03:47;6.90;;;5.53;;
17727;SDS011;8984;49.268;12.302;2024-02-16T00:12:24;6.77;;;5.27;;
17727;SDS011;8984;49.268;12.302;2024-02-16T00:15:10;8.67;;;5.57;;
17727;SDS011;8984;49.268;12.302;2024-02-16T00:17:53;10.23;;;7.10;;
17727;SDS011;8984;49.268;12.302;2024-02-16T00:27:22;6.87;;;5.27;;
17727;SDS011;8984;49.268;12.302;2024-02-16T00:32:52;6.23;;;4.53;;
17727;SDS011;8984;49.268;12.302;2024-02-16T00:35:36;7.33;;;5.47;;
17727;SDS011;8984;49.268;12.302;2024-02-16T00:38:37;7.47;;;4.90;;
17727;SDS011;8984;49.268;12.302;2024-02-16T00:44:31;6.63;;;4.80;;
17727;SDS011;8984;49.268;12.302;2024-02-16T00:47:00;6.70;;;5.00;;
17727;SDS011;8984;49.268;12.302;2024-02-16T00:49:29;8.00;;;5.20;;
17727;SDS011;8984;49.268;12.302;2024-02-16T00:51:58;5.70;;;4.70;;
17727;SDS011;8984;49.268;12.302;2024-02-16T00:54:36;7.07;;;4.67;;
17727;SDS011;8984;49.268;12.302;2024-02-16T00:57:29;5.30;;;4.53;;
17727;SDS011;8984;49.268;12.302;2024-02-16T01:00:12;7.80;;;4.53;;
17727;SDS011;8984;49.268;12.302;2024-02-16T01:02:45;6.20;;;4.73;;
17727;SDS011;8984;49.268;12.302;2024-02-16T01:05:16;6.87;;;4.53;;
17727;SDS011;8984;49.268;12.302;2024-02-16T01:07:51;5.27;;;4.07;;
17727;SDS011;8984;49.268;12.302;2024-02-16T01:10:20;5.13;;;3.90;;
17727;SDS011;8984;49.268;12.302;2024-02-16T01:13:01;6.90;;;4.33;;
17727;SDS011;8984;49.268;12.302;2024-02-16T01:18:35;5.40;;;4.50;;
17727;SDS011;8984;49.268;12.302;2024-02-16T01:21:09;5.03;;;4.07;;
17727;SDS011;8984;49.268;12.302;2024-02-16T01:23:54;5.57;;;4.03;;
17727;SDS011;8984;49.268;12.302;2024-02-16T01:26:39;8.37;;;4.90;;
17727;SDS011;8984;49.268;12.302;2024-02-16T01:29:08;4.30;;;3.90;;
17727;SDS011;8984;49.268;12.302;2024-02-16T01:31:53;9.03;;;5.97;;
17727;SDS011;8984;49.268;12.302;2024-02-16T01:34:26;7.10;;;5.60;;
17727;SDS011;8984;49.268;12.302;2024-02-16T01:36:57;6.60;;;5.50;;
17727;SDS011;8984;49.268;12.302;2024-02-16T01:39:38;5.13;;;3.87;;
17727;SDS011;8984;49.268;12.302;2024-02-16T01:42:20;5.80;;;4.30;;
17727;SDS011;8984;49.268;12.302;2024-02-16T01:45:01;6.60;;;4.10;;
17727;SDS011;8984;49.268;12.302;2024-02-16T01:47:53;6.10;;;4.60;;
17727;SDS011;8984;49.268;12.302;2024-02-16T01:50:39;8.50;;;4.57;;
17727;SDS011;8984;49.268;12.302;2024-02-16T01:53:10;5.33;;;4.40;;
17727;SDS011;8984;49.268;12.302;2024-02-16T01:55:44;6.23;;;4.43;;
17727;SDS011;8984;49.268;12.302;2024-02-16T01:58:26;5.90;;;4.30;;
17727;SDS011;8984;49.268;12.302;2024-02-16T02:01:10;5.57;;;3.70;;
17727;SDS011;8984;49.268;12.302;2024-02-16T02:04:00;5.17;;;3.97;;
17727;SDS011;8984;49.268;12.302;2024-02-16T02:06:29;7.77;;;4.70;;
17727;SDS011;8984;49.268;12.302;2024-02-16T02:09:03;5.80;;;4.80;;
17727;SDS011;8984;49.268;12.302;2024-02-16T02:11:42;5.77;;;4.57;;
17727;SDS011;8984;49.268;12.302;2024-02-16T02:14:12;5.13;;;4.10;;
17727;SDS011;8984;49.268;12.302;2024-02-16T02:16:59;4.83;;;4.33;;
17727;SDS011;8984;49.268;12.302;2024-02-16T02:22:37;5.83;;;4.77;;
17727;SDS011;8984;49.268;12.302;2024-02-16T02:25:09;5.50;;;4.33;;
17727;SDS011;8984;49.268;12.302;2024-02-16T02:27:53;6.87;;;4.60;;
17727;SDS011;8984;49.268;12.302;2024-02-16T02:30:22;5.37;;;4.00;;
17727;SDS011;8984;49.268;12.302;2024-02-16T02:32:55;6.83;;;4.60;;
17727;SDS011;8984;49.268;12.302;2024-02-16T02:35:44;4.47;;;3.97;;
17727;SDS011;8984;49.268;12.302;2024-02-16T02:38:21;5.43;;;4.70;;
17727;SDS011;8984;49.268;12.302;2024-02-16T02:40:53;6.30;;;4.63;;
17727;SDS011;8984;49.268;12.302;2024-02-16T02:43:39;5.90;;;4.47;;
17727;SDS011;8984;49.268;12.302;2024-02-16T02:46:08;6.17;;;4.70;;
17727;SDS011;8984;49.268;12.302;2024-02-16T02:51:57;7.30;;;4.40;;
17727;SDS011;8984;49.268;12.302;2024-02-16T02:57:33;6.83;;;4.60;;
17727;SDS011;8984;49.268;12.302;2024-02-16T03:00:15;8.60;;;5.03;;
17727;SDS011;8984;49.268;12.302;2024-02-16T03:03:04;5.47;;;4.40;;
17727;SDS011;8984;49.268;12.302;2024-02-16T03:05:55;5.40;;;4.30;;
17727;SDS011;8984;49.268;12.302;2024-02-16T03:08:24;5.90;;;4.73;;
17727;SDS011;8984;49.268;12.302;2024-02-16T03:10:57;6.33;;;4.97;;
17727;SDS011;8984;49.268;12.302;2024-02-16T03:13:47;5.10;;;4.60;;
17727;SDS011;8984;49.268;12.302;2024-02-16T03:16:25;5.87;;;3.97;;
17727;SDS011;8984;49.268;12.302;2024-02-16T03:18:57;5.73;;;4.70;;
17727;SDS011;8984;49.268;12.302;2024-02-16T03:21:32;6.30;;;4.80;;
17727;SDS011;8984;49.268;12.302;2024-02-16T03:24:04;5.90;;;4.50;;
17727;SDS011;8984;49.268;12.302;2024-02-16T03:26:38;4.90;;;3.70;;
17727;SDS011;8984;49.268;12.302;2024-02-16T03:29:11;5.57;;;4.27;;
17727;SDS011;8984;49.268;12.302;2024-02-16T03:31:42;7.10;;;4.37;;
17727;SDS011;8984;49.268;12.302;2024-02-16T03:34:13;4.87;;;4.13;;
17727;SDS011;8984;49.268;12.302;2024-02-16T03:36:42;5.90;;;4.63;;
17727;SDS011;8984;49.268;12.302;2024-02-16T03:39:13;5.80;;;4.37;;
17727;SDS011;8984;49.268;12.302;2024-02-16T03:41:53;6.23;;;4.57;;
17727;SDS011;8984;49.268;12.302;2024-02-16T03:44:25;4.57;;;3.90;;
17727;SDS011;8984;49.268;12.302;2024-02-16T03:47:12;5.63;;;4.60;;
17727;SDS011;8984;49.268;12.302;2024-02-16T03:49:46;7.20;;;4.87;;
17727;SDS011;8984;49.268;12.302;2024-02-16T03:52:28;4.63;;;4.07;;
17727;SDS011;8984;49.268;12.302;2024-02-16T03:55:23;5.20;;;4.50;;
17727;SDS011;8984;49.268;12.302;2024-02-16T03:58:05;7.17;;;4.97;;
17727;SDS011;8984;49.268;12.302;2024-02-16T04:01:03;5.10;;;4.20;;
17727;SDS011;8984;49.268;12.302;2024-02-16T04:03:31;5.63;;;4.57;;
17727;SDS011;8984;49.268;12.302;2024-02-16T04:05:59;5.73;;;4.33;;
17727;SDS011;8984;49.268;12.302;2024-02-16T04:08:26;6.23;;;4.37;;
17727;SDS011;8984;49.268;12.302;2024-02-16T04:10:53;7.27;;;4.67;;
17727;SDS011;8984;49.268;12.302;2024-02-16T04:13:20;6.57;;;5.07;;
17727;SDS011;8984;49.268;12.302;2024-02-16T04:15:46;5.03;;;4.53;;
17727;SDS011;8984;49.268;12.302;2024-02-16T04:18:15;4.97;;;4.30;;
17727;SDS011;8984;49.268;12.302;2024-02-16T04:20:43;7.37;;;4.40;;
17727;SDS011;8984;49.268;12.302;2024-02-16T04:23:10;4.93;;;4.03;;
17727;SDS011;8984;49.268;12.302;2024-02-16T04:25:37;5.30;;;4.20;;
17727;SDS011;8984;49.268;12.302;2024-02-16T04:28:04;5.83;;;4.33;;
17727;SDS011;8984;49.268;12.302;2024-02-16T04:30:31;5.13;;;4.37;;
17727;SDS011;8984;49.268;12.302;2024-02-16T04:32:58;5.17;;;4.47;;
17727;SDS011;8984;49.268;12.302;2024-02-16T04:35:26;4.77;;;4.27;;
17727;SDS011;8984;49.268;12.302;2024-02-16T04:37:53;4.70;;;4.20;;
17727;SDS011;8984;49.268;12.302;2024-02-16T04:40:20;5.13;;;4.20;;
17727;SDS011;8984;49.268;12.302;2024-02-16T04:42:46;5.27;;;3.97;;
17727;SDS011;8984;49.268;12.302;2024-02-16T04:45:13;4.73;;;4.07;;
17727;SDS011;8984;49.268;12.302;2024-02-16T04:47:40;5.33;;;4.17;;
17727;SDS011;8984;49.268;12.302;2024-02-16T04:50:07;7.33;;;4.60;;
17727;SDS011;8984;49.268;12.302;2024-02-16T04:52:37;4.93;;;4.17;;
17727;SDS011;8984;49.268;12.302;2024-02-16T04:55:06;8.60;;;5.00;;
17727;SDS011;8984;49.268;12.302;2024-02-16T04:57:33;7.43;;;5.27;;
17727;SDS011;8984;49.268;12.302;2024-02-16T05:00:00;5.43;;;4.60;;
17727;SDS011;8984;49.268;12.302;2024-02-16T05:02:27;6.17;;;4.37;;
17727;SDS011;8984;49.268;12.302;2024-02-16T05:04:53;5.37;;;4.40;;
17727;SDS011;8984;49.268;12.302;2024-02-16T05:07:20;7.10;;;4.03;;
17727;SDS011;8984;49.268;12.302;2024-02-16T05:09:48;5.70;;;5.03;;
17727;SDS011;8984;49.268;12.302;2024-02-16T05:12:20;10.40;;;5.70;;
17727;SDS011;8984;49.268;12.302;2024-02-16T05:14:47;6.70;;;4.73;;
17727;SDS011;8984;49.268;12.302;2024-02-16T05:17:15;6.63;;;5.00;;
17727;SDS011;8984;49.268;12.302;2024-02-16T05:19:41;6.57;;;4.73;;
17727;SDS011;8984;49.268;12.302;2024-02-16T05:22:08;6.97;;;4.77;;
17727;SDS011;8984;49.268;12.302;2024-02-16T05:24:35;8.77;;;5.40;;
17727;SDS011;8984;49.268;12.302;2024-02-16T05:27:03;6.20;;;5.17;;
17727;SDS011;8984;49.268;12.302;2024-02-16T05:29:30;6.50;;;5.17;;
17727;SDS011;8984;49.268;12.302;2024-02-16T05:31:57;5.70;;;5.10;;
17727;SDS011;8984;49.268;12.302;2024-02-16T05:34:24;11.27;;;5.23;;
17727;SDS011;8984;49.268;12.302;2024-02-16T05:36:50;6.30;;;5.20;;
17727;SDS011;8984;49.268;12.302;2024-02-16T05:39:18;7.20;;;4.93;;
17727;SDS011;8984;49.268;12.302;2024-02-16T05:41:51;5.83;;;5.00;;
17727;SDS011;8984;49.268;12.302;2024-02-16T05:44:20;5.90;;;4.80;;
17727;SDS011;8984;49.268;12.302;2024-02-16T05:46:47;6.47;;;4.93;;
17727;SDS011;8984;49.268;12.302;2024-02-16T05:49:14;6.60;;;5.50;;
17727;SDS011;8984;49.268;12.302;2024-02-16T05:51:41;5.93;;;4.87;;
17727;SDS011;8984;49.268;12.302;2024-02-16T05:54:25;5.90;;;4.80;;
17727;SDS011;8984;49.268;12.302;2024-02-16T05:56:52;7.77;;;5.27;;
17727;SDS011;8984;49.268;12.302;2024-02-16T05:59:20;7.53;;;5.30;;
17727;SDS011;8984;49.268;12.302;2024-02-16T06:01:50;7.30;;;6.03;;
17727;SDS011;8984;49.268;12.302;2024-02-16T06:04:17;9.27;;;5.63;;
17727;SDS011;8984;49.268;12.302;2024-02-16T06:06:43;6.60;;;5.53;;
17727;SDS011;8984;49.268;12.302;2024-02-16T06:09:11;7.03;;;5.90;;
17727;SDS011;8984;49.268;12.302;2024-02-16T06:11:39;6.77;;;5.97;;
17727;SDS011;8984;49.268;12.302;2024-02-16T06:14:06;6.30;;;5.70;;
17727;SDS011;8984;49.268;12.302;2024-02-16T06:16:34;6.93;;;5.47;;
17727;SDS011;8984;49.268;12.302;2024-02-16T06:19:01;9.73;;;5.57;;
17727;SDS011;8984;49.268;12.302;2024-02-16T06:21:28;8.00;;;5.03;;
17727;SDS011;8984;49.268;12.302;2024-02-16T06:23:55;8.37;;;5.37;;
17727;SDS011;8984;49.268;12.302;2024-02-16T06:26:23;5.57;;;4.70;;
17727;SDS011;8984;49.268;12.302;2024-02-16T06:28:49;7.33;;;6.10;;
17727;SDS011;8984;49.268;12.302;2024-02-16T06:31:16;6.33;;;5.43;;
17727;SDS011;8984;49.268;12.302;2024-02-16T06:33:44;8.67;;;7.20;;
17727;SDS011;8984;49.268;12.302;2024-02-16T06:36:11;8.53;;;7.10;;
17727;SDS011;8984;49.268;12.302;2024-02-16T06:38:39;11.03;;;6.07;;
17727;SDS011;8984;49.268;12.302;2024-02-16T06:41:05;9.63;;;8.33;;
17727;SDS011;8984;49.268;12.302;2024-02-16T06:43:33;9.23;;;7.40;;
17727;SDS011;8984;49.268;12.302;2024-02-16T06:45:59;10.03;;;6.90;;
17727;SDS011;8984;49.268;12.302;2024-02-16T06:48:27;7.50;;;5.37;;
17727;SDS011;8984;49.268;12.302;2024-02-16T06:50:57;8.80;;;5.27;;
17727;SDS011;8984;49.268;12.302;2024-02-16T06:53:24;9.70;;;6.20;;
17727;SDS011;8984;49.268;12.302;2024-02-16T06:55:50;7.00;;;6.00;;
17727;SDS011;8984;49.268;12.302;2024-02-16T06:58:17;7.90;;;6.27;;
17727;SDS011;8984;49.268;12.302;2024-02-16T07:00:45;9.10;;;6.20;;
17727;SDS011;8984;49.268;12.302;2024-02-16T07:03:12;9.53;;;6.63;;
17727;SDS011;8984;49.268;12.302;2024-02-16T07:05:39;9.80;;;7.13;;
17727;SDS011;8984;49.268;12.302;2024-02-16T07:08:07;12.87;;;7.50;;
17727;SDS011;8984;49.268;12.302;2024-02-16T07:10:34;9.83;;;6.63;;
17727;SDS011;8984;49.268;12.302;2024-02-16T07:13:01;7.93;;;6.60;;
17727;SDS011;8984;49.268;12.302;2024-02-16T07:15:28;8.10;;;6.27;;
17727;SDS011;8984;49.268;12.302;2024-02-16T07:17:55;7.13;;;6.23;;
17727;SDS011;8984;49.268;12.302;2024-02-16T07:20:23;9.20;;;6.83;;
17727;SDS011;8984;49.268;12.302;2024-02-16T07:22:49;12.03;;;8.30;;
17727;SDS011;8984;49.268;12.302;2024-02-16T07:25:18;18.33;;;10.93;;
17727;SDS011;8984;49.268;12.302;2024-02-16T07:27:44;14.67;;;10.93;;
17727;SDS011;8984;49.268;12.302;2024-02-16T07:30:11;12.57;;;8.97;;
17727;SDS011;8984;49.268;12.302;2024-02-16T07:32:39;9.63;;;7.13;;
17727;SDS011;8984;49.268;12.302;2024-02-16T07:35:06;10.37;;;7.00;;
17727;SDS011;8984;49.268;12.302;2024-02-16T07:37:35;10.07;;;7.07;;
17727;SDS011;8984;49.268;12.302;2024-02-16T07:40:02;7.67;;;6.40;;
17727;SDS011;8984;49.268;12.302;2024-02-16T07:42:32;8.30;;;6.20;;
17727;SDS011;8984;49.268;12.302;2024-02-16T07:44:59;10.37;;;7.57;;
17727;SDS011;8984;49.268;12.302;2024-02-16T07:47:26;9.60;;;8.03;;
17727;SDS011;8984;49.268;12.302;2024-02-16T07:49:53;12.93;;;7.20;;
17727;SDS011;8984;49.268;12.302;2024-02-16T07:52:20;7.40;;;5.93;;
17727;SDS011;8984;49.268;12.302;2024-02-16T07:54:47;8.33;;;5.97;;
17727;SDS011;8984;49.268;12.302;2024-02-16T07:57:16;6.83;;;5.67;;
17727;SDS011;8984;49.268;12.302;2024-02-16T07:59:45;7.53;;;5.70;;
17727;SDS011;8984;49.268;12.302;2024-02-16T08:02:11;7.23;;;5.73;;
17727;SDS011;8984;49.268;12.302;2024-02-16T08:04:40;9.60;;;7.00;;
17727;SDS011;8984;49.268;12.302;2024-02-16T08:07:07;9.03;;;6.47;;
17727;SDS011;8984;49.268;12.302;2024-02-16T08:09:34;7.97;;;6.10;;
17727;SDS011;8984;49.268;12.302;2024-02-16T08:12:01;8.43;;;5.83;;
17727;SDS011;8984;49.268;12.302;2024-02-16T08:14:30;8.07;;;5.53;;
17727;SDS011;8984;49.268;12.302;2024-02-16T08:16:59;11.63;;;7.00;;
17727;SDS011;8984;49.268;12.302;2024-02-16T08:19:26;7.57;;;6.17;;
17727;SDS011;8984;49.268;12.302;2024-02-16T08:21:58;12.70;;;8.10;;
17727;SDS011;8984;49.268;12.302;2024-02-16T08:24:25;8.03;;;6.17;;
17727;SDS011;8984;49.268;12.302;2024-02-16T08:26:52;8.63;;;6.33;;
17727;SDS011;8984;49.268;12.302;2024-02-16T08:29:19;8.53;;;6.00;;
17727;SDS011;8984;49.268;12.302;2024-02-16T08:31:47;8.33;;;6.03;;
17727;SDS011;8984;49.268;12.302;2024-02-16T08:34:16;9.40;;;6.53;;
17727;SDS011;8984;49.268;12.302;2024-02-16T08:36:44;9.40;;;6.90;;
17727;SDS011;8984;49.268;12.302;2024-02-16T08:39:19;8.80;;;6.80;;
17727;SDS011;8984;49.268;12.302;2024-02-16T08:41:53;11.00;;;7.47;;
17727;SDS011;8984;49.268;12.302;2024-02-16T08:44:27;10.80;;;7.23;;
17727;SDS011;8984;49.268;12.302;2024-02-16T08:46:55;8.90;;;5.60;;
17727;SDS011;8984;49.268;12.302;2024-02-16T08:49:34;8.17;;;5.20;;
17727;SDS011;8984;49.268;12.302;2024-02-16T08:52:13;7.17;;;5.90;;
17727;SDS011;8984;49.268;12.302;2024-02-16T08:54:53;6.33;;;5.23;;
17727;SDS011;8984;49.268;12.302;2024-02-16T08:57:22;6.57;;;5.70;;
17727;SDS011;8984;49.268;12.302;2024-02-16T08:59:55;6.50;;;5.57;;
17727;SDS011;8984;49.268;12.302;2024-02-16T09:02:24;7.10;;;5.97;;
17727;SDS011;8984;49.268;12.302;2024-02-16T09:05:03;7.07;;;5.70;;
17727;SDS011;8984;49.268;12.302;2024-02-16T09:07:36;6.27;;;5.43;;
17727;SDS011;8984;49.268;12.302;2024-02-16T09:10:05;6.33;;;4.60;;
17727;SDS011;8984;49.268;12.302;2024-02-16T09:12:39;5.83;;;4.63;;
17727;SDS011;8984;49.268;12.302;2024-02-16T09:15:07;7.70;;;5.77;;
17727;SDS011;8984;49.268;12.302;2024-02-16T09:17:37;6.97;;;5.00;;
17727;SDS011;8984;49.268;12.302;2024-02-16T09:20:19;34.53;;;20.93;;
17727;SDS011;8984;49.268;12.302;2024-02-16T09:22:49;6.83;;;4.83;;
17727;SDS011;8984;49.268;12.302;2024-02-16T09:25:16;5.10;;;4.60;;
17727;SDS011;8984;49.268;12.302;2024-02-16T09:27:46;5.70;;;4.63;;
17727;SDS011;8984;49.268;12.302;2024-02-16T09:30:22;5.97;;;4.63;;
17727;SDS011;8984;49.268;12.302;2024-02-16T09:33:00;5.47;;;4.30;;
17727;SDS011;8984;49.268;12.302;2024-02-16T09:35:31;4.70;;;4.20;;
17727;SDS011;8984;49.268;12.302;2024-02-16T09:38:05;4.93;;;4.27;;
17727;SDS011;8984;49.268;12.302;2024-02-16T09:40:35;5.73;;;4.20;;
17727;SDS011;8984;49.268;12.302;2024-02-16T09:43:04;7.70;;;4.83;;
17727;SDS011;8984;49.268;12.302;2024-02-16T09:45:34;8.13;;;5.00;;
17727;SDS011;8984;49.268;12.302;2024-02-16T09:48:05;5.70;;;4.67;;
17727;SDS011;8984;49.268;12.302;2024-02-16T09:50:37;5.30;;;4.40;;
17727;SDS011;8984;49.268;12.302;2024-02-16T09:53:06;6.00;;;5.37;;
17727;SDS011;8984;49.268;12.302;2024-02-16T09:55:37;6.53;;;4.63;;
17727;SDS011;8984;49.268;12.302;2024-02-16T09:58:07;5.37;;;4.80;;
17727;SDS011;8984;49.268;12.302;2024-02-16T10:00:47;5.50;;;4.80;;
17727;SDS011;8984;49.268;12.302;2024-02-16T10:03:23;7.33;;;5.20;;
17727;SDS011;8984;49.268;12.302;2024-02-16T10:06:09;7.03;;;6.03;;
17727;SDS011;8984;49.268;12.302;2024-02-16T10:08:57;5.10;;;4.53;;
17727;SDS011;8984;49.268;12.302;2024-02-16T10:11:32;7.13;;;5.20;;
17727;SDS011;8984;49.268;12.302;2024-02-16T10:14:00;4.80;;;4.30;;
17727;SDS011;8984;49.268;12.302;2024-02-16T10:16:58;6.90;;;5.40;;
17727;SDS011;8984;49.268;12.302;2024-02-16T10:19:28;6.90;;;5.40;;
17727;SDS011;8984;49.268;12.302;2024-02-16T10:22:07;6.63;;;4.80;;
17727;SDS011;8984;49.268;12.302;2024-02-16T10:24:39;5.40;;;3.90;;
17727;SDS011;8984;49.268;12.302;2024-02-16T10:27:13;5.00;;;4.27;;
17727;SDS011;8984;49.268;12.302;2024-02-16T10:29:43;6.93;;;4.70;;
17727;SDS011;8984;49.268;12.302;2024-02-16T10:32:16;5.53;;;4.10;;
17727;SDS011;8984;49.268;12.302;2024-02-16T10:34:48;5.97;;;4.30;;
17727;SDS011;8984;49.268;12.302;2024-02-16T10:37:21;8.03;;;4.10;;
17727;SDS011;8984;49.268;12.302;2024-02-16T10:39:56;4.23;;;3.73;;
17727;SDS011;8984;49.268;12.302;2024-02-16T10:42:26;5.03;;;3.63;;
17727;SDS011;8984;49.268;12.302;2024-02-16T10:45:06;8.07;;;5.47;;
17727;SDS011;8984;49.268;12.302;2024-02-16T10:47:38;8.90;;;4.97;;
17727;SDS011;8984;49.268;12.302;2024-02-16T10:50:14;9.13;;;5.70;;
17727;SDS011;8984;49.268;12.302;2024-02-16T10:52:51;9.67;;;6.03;;
17727;SDS011;8984;49.268;12.302;2024-02-16T10:55:27;8.23;;;6.30;;
17727;SDS011;8984;49.268;12.302;2024-02-16T10:58:13;8.77;;;6.70;;
17727;SDS011;8984;49.268;12.302;2024-02-16T11:00:51;9.20;;;5.80;;
17727;SDS011;8984;49.268;12.302;2024-02-16T11:03:23;6.00;;;4.60;;
17727;SDS011;8984;49.268;12.302;2024-02-16T11:05:53;5.30;;;4.27;;
17727;SDS011;8984;49.268;12.302;2024-02-16T11:08:40;5.77;;;4.07;;
17727;SDS011;8984;49.268;12.302;2024-02-16T11:11:07;7.30;;;4.83;;
17727;SDS011;8984;49.268;12.302;2024-02-16T11:13:54;9.13;;;4.37;;
17727;SDS011;8984;49.268;12.302;2024-02-16T11:16:43;5.57;;;4.83;;
17727;SDS011;8984;49.268;12.302;2024-02-16T11:19:12;6.80;;;4.80;;
17727;SDS011;8984;49.268;12.302;2024-02-16T11:21:54;6.40;;;4.37;;
17727;SDS011;8984;49.268;12.302;2024-02-16T11:24:32;4.40;;;3.77;;
17727;SDS011;8984;49.268;12.302;2024-02-16T11:27:03;5.97;;;3.60;;
17727;SDS011;8984;49.268;12.302;2024-02-16T11:29:37;6.00;;;3.97;;
17727;SDS011;8984;49.268;12.302;2024-02-16T11:32:07;5.13;;;4.13;;
17727;SDS011;8984;49.268;12.302;2024-02-16T11:34:43;7.33;;;3.90;;
17727;SDS011;8984;49.268;12.302;2024-02-16T11:37:26;5.43;;;4.60;;
17727;SDS011;8984;49.268;12.302;2024-02-16T11:39:56;4.20;;;3.70;;
17727;SDS011;8984;49.268;12.302;2024-02-16T11:42:27;5.17;;;3.87;;
17727;SDS011;8984;49.268;12.302;2024-02-16T11:44:59;6.20;;;3.70;;
17727;SDS011;8984;49.268;12.302;2024-02-16T11:47:29;6.47;;;3.70;;
17727;SDS011;8984;49.268;12.302;2024-02-16T11:50:02;5.83;;;3.70;;
17727;SDS011;8984;49.268;12.302;2024-02-16T11:52:31;7.03;;;4.03;;
17727;SDS011;8984;49.268;12.302;2024-02-16T11:58:16;4.37;;;3.50;;
17727;SDS011;8984;49.268;12.302;2024-02-16T12:01:09;4.10;;;3.20;;
17727;SDS011;8984;49.268;12.302;2024-02-16T12:03:40;5.23;;;3.40;;
17727;SDS011;8984;49.268;12.302;2024-02-16T12:06:19;5.83;;;3.50;;
17727;SDS011;8984;49.268;12.302;2024-02-16T12:08:53;5.00;;;3.60;;
17727;SDS011;8984;49.268;12.302;2024-02-16T12:11:28;3.50;;;3.03;;
17727;SDS011;8984;49.268;12.302;2024-02-16T12:14:17;4.00;;;3.20;;
17727;SDS011;8984;49.268;12.302;2024-02-16T12:16:48;4.23;;;3.33;;
17727;SDS011;8984;49.268;12.302;2024-02-16T12:19:18;6.30;;;3.40;;
17727;SDS011;8984;49.268;12.302;2024-02-16T12:22:06;5.33;;;3.13;;
17727;SDS011;8984;49.268;12.302;2024-02-16T12:24:45;4.53;;;3.20;;
17727;SDS011;8984;49.268;12.302;2024-02-16T12:30:09;3.40;;;2.90;;
17727;SDS011;8984;49.268;12.302;2024-02-16T12:33:19;5.57;;;3.27;;
17727;SDS011;8984;49.268;12.302;2024-02-16T12:35:48;4.00;;;2.70;;
17727;SDS011;8984;49.268;12.302;2024-02-16T12:38:33;3.53;;;2.93;;
17727;SDS011;8984;49.268;12.302;2024-02-16T12:41:16;3.87;;;3.17;;
17727;SDS011;8984;49.268;12.302;2024-02-16T12:44:03;5.13;;;3.07;;
17727;SDS011;8984;49.268;12.302;2024-02-16T12:46:48;4.93;;;2.90;;
17727;SDS011;8984;49.268;12.302;2024-02-16T12:49:16;2.90;;;2.57;;
17727;SDS011;8984;49.268;12.302;2024-02-16T12:51:49;4.83;;;3.10;;
17727;SDS011;8984;49.268;12.302;2024-02-16T12:54:22;3.67;;;2.87;;
17727;SDS011;8984;49.268;12.302;2024-02-16T12:56:53;6.10;;;2.90;;
17727;SDS011;8984;49.268;12.302;2024-02-16T12:59:38;4.87;;;2.80;;
17727;SDS011;8984;49.268;12.302;2024-02-16T13:02:18;4.73;;;3.33;;
17727;SDS011;8984;49.268;12.302;2024-02-16T13:04:48;4.10;;;3.50;;
17727;SDS011;8984;49.268;12.302;2024-02-16T13:07:36;4.10;;;3.30;;
17727;SDS011;8984;49.268;12.302;2024-02-16T13:10:12;6.67;;;3.30;;
17727;SDS011;8984;49.268;12.302;2024-02-16T13:12:46;5.10;;;3.70;;
17727;SDS011;8984;49.268;12.302;2024-02-16T13:15:38;4.50;;;3.20;;
17727;SDS011;8984;49.268;12.302;2024-02-16T13:18:11;5.37;;;3.87;;
17727;SDS011;8984;49.268;12.302;2024-02-16T13:20:45;7.20;;;3.37;;
17727;SDS011;8984;49.268;12.302;2024-02-16T13:23:31;5.63;;;3.40;;
17727;SDS011;8984;49.268;12.302;2024-02-16T13:26:02;5.67;;;3.07;;
17727;SDS011;8984;49.268;12.302;2024-02-16T13:28:34;3.83;;;3.30;;
17727;SDS011;8984;49.268;12.302;2024-02-16T13:31:33;4.10;;;3.30;;
17727;SDS011;8984;49.268;12.302;2024-02-16T13:34:11;4.53;;;3.93;;
17727;SDS011;8984;49.268;12.302;2024-02-16T13:36:47;4.37;;;3.30;;
17727;SDS011;8984;49.268;12.302;2024-02-16T13:39:23;5.00;;;3.60;;
17727;SDS011;8984;49.268;12.302;2024-02-16T13:42:00;7.17;;;4.90;;
17727;SDS011;8984;49.268;12.302;2024-02-16T13:44:45;6.00;;;3.77;;
17727;SDS011;8984;49.268;12.302;2024-02-16T13:47:18;5.17;;;3.30;;
17727;SDS011;8984;49.268;12.302;2024-02-16T13:49:50;3.63;;;3.20;;
17727;SDS011;8984;49.268;12.302;2024-02-16T13:52:23;3.50;;;2.77;;
17727;SDS011;8984;49.268;12.302;2024-02-16T13:54:59;3.00;;;2.80;;
17727;SDS011;8984;49.268;12.302;2024-02-16T13:57:36;3.83;;;3.20;;
17727;SDS011;8984;49.268;12.302;2024-02-16T14:00:04;4.67;;;3.20;;
17727;SDS011;8984;49.268;12.302;2024-02-16T14:02:33;3.30;;;2.97;;
17727;SDS011;8984;49.268;12.302;2024-02-16T14:05:00;4.37;;;2.93;;
17727;SDS011;8984;49.268;12.302;2024-02-16T14:07:27;3.83;;;3.27;;
17727;SDS011;8984;49.268;12.302;2024-02-16T14:10:11;3.57;;;3.20;;
17727;SDS011;8984;49.268;12.302;2024-02-16T14:12:39;3.80;;;3.10;;
17727;SDS011;8984;49.268;12.302;2024-02-16T14:20:47;5.57;;;3.17;;
17727;SDS011;8984;49.268;12.302;2024-02-16T14:23:18;3.93;;;3.00;;
17727;SDS011;8984;49.268;12.302;2024-02-16T14:25:46;4.33;;;3.53;;
17727;SDS011;8984;49.268;12.302;2024-02-16T14:28:14;4.03;;;3.13;;
17727;SDS011;8984;49.268;12.302;2024-02-16T14:30:44;4.17;;;3.30;;
17727;SDS011;8984;49.268;12.302;2024-02-16T14:35:59;3.80;;;3.40;;
17727;SDS011;8984;49.268;12.302;2024-02-16T14:38:38;6.43;;;4.20;;
17727;SDS011;8984;49.268;12.302;2024-02-16T14:41:20;6.77;;;4.63;;
17727;SDS011;8984;49.268;12.302;2024-02-16T14:43:53;9.27;;;6.93;;
17727;SDS011;8984;49.268;12.302;2024-02-16T14:46:40;4.73;;;4.00;;
17727;SDS011;8984;49.268;12.302;2024-02-16T14:49:20;6.53;;;4.23;;
17727;SDS011;8984;49.268;12.302;2024-02-16T14:52:01;6.07;;;4.80;;
17727;SDS011;8984;49.268;12.302;2024-02-16T14:54:45;6.57;;;4.83;;
17727;SDS011;8984;49.268;12.302;2024-02-16T14:57:19;7.17;;;5.10;;
17727;SDS011;8984;49.268;12.302;2024-02-16T14:59:58;7.63;;;4.97;;
17727;SDS011;8984;49.268;12.302;2024-02-16T15:02:25;5.67;;;4.83;;
17727;SDS011;8984;49.268;12.302;2024-02-16T15:05:04;7.90;;;6.23;;
17727;SDS011;8984;49.268;12.302;2024-02-16T15:07:38;13.13;;;10.53;;
17727;SDS011;8984;49.268;12.302;2024-02-16T15:10:11;11.00;;;8.17;;
17727;SDS011;8984;49.268;12.302;2024-02-16T15:12:40;7.90;;;5.97;;
17727;SDS011;8984;49.268;12.302;2024-02-16T15:15:16;10.27;;;6.87;;
17727;SDS011;8984;49.268;12.302;2024-02-16T15:17:50;8.60;;;7.40;;
17727;SDS011;8984;49.268;12.302;2024-02-16T15:23:02;7.57;;;6.77;;
17727;SDS011;8984;49.268;12.302;2024-02-16T15:25:30;10.43;;;6.33;;
17727;SDS011;8984;49.268;12.302;2024-02-16T15:28:12;6.43;;;5.60;;
17727;SDS011;8984;49.268;12.302;2024-02-16T15:30:52;7.07;;;5.33;;
17727;SDS011;8984;49.268;12.302;2024-02-16T15:33:26;6.67;;;5.73;;
17727;SDS011;8984;49.268;12.302;2024-02-16T15:36:00;6.77;;;5.57;;
17727;SDS011;8984;49.268;12.302;2024-02-16T15:38:29;9.83;;;6.27;;
17727;SDS011;8984;49.268;12.302;2024-02-16T15:40:58;9.53;;;7.10;;
17727;SDS011;8984;49.268;12.302;2024-02-16T15:46:23;16.77;;;12.47;;
17727;SDS011;8984;49.268;12.302;2024-02-16T15:49:11;20.23;;;15.27;;
17727;SDS011;8984;49.268;12.302;2024-02-16T15:51:39;15.87;;;10.53;;
17727;SDS011;8984;49.268;12.302;2024-02-16T15:54:07;12.10;;;8.07;;
17727;SDS011;8984;49.268;12.302;2024-02-16T15:56:34;8.33;;;6.70;;
17727;SDS011;8984;49.268;12.302;2024-02-16T15:59:03;10.40;;;8.33;;
17727;SDS011;8984;49.268;12.302;2024-02-16T16:01:29;11.93;;;7.60;;
17727;SDS011;8984;49.268;12.302;2024-02-16T16:03:57;6.70;;;5.47;;
17727;SDS011;8984;49.268;12.302;2024-02-16T16:06:24;8.07;;;5.83;;
17727;SDS011;8984;49.268;12.302;2024-02-16T16:08:53;10.90;;;6.20;;
17727;SDS011;8984;49.268;12.302;2024-02-16T16:11:22;7.67;;;5.80;;
17727;SDS011;8984;49.268;12.302;2024-02-16T16:13:49;5.83;;;4.77;;